Breda, Netherlands
Current Conditions -  °F | °C
As of 1:25 PM on Thursday 30 Oct 2014 (Local Time) from EHGR Reporting Station
Haze Haze  
Wind Chill: 61°   Ceiling: 8800
Heat Index: 61°   Visibility: 4mi
Dew Point: 57°   Wind: 8mph
Humidity: 88%   Direction: 170°S
Pressure: 30.15"   Gusts: NA
Location:  51.56°N, 4.76°E
Report Text: EHGR 301225Z AUTO 17007KT 6000 BR BKN088 BKN100 16/14 Q1021 WHT 16009KT 7000 SCT007 BKN150 BECMG NSC
Loading
Personal Weather Stations






























Interactive Weather Map
Tropical Storm Tracking
New forecast layout! Learn more

10-Day Weather Forecast

Advertisements
Track Severe Weather on mobile